createdAt,value
2022-09-23T00:00:44.505Z,83.34
2022-09-23T00:03:32.926Z,83.55
2022-09-23T00:06:03.042Z,83.47
2022-09-23T00:08:34.870Z,83.55
2022-09-23T00:11:08.641Z,83.81
2022-09-23T00:13:42.244Z,83.67
2022-09-23T00:16:19.499Z,83.85
2022-09-23T00:18:50.796Z,83.95
2022-09-23T00:21:23.209Z,83.95
2022-09-23T00:23:54.070Z,84.12
2022-09-23T00:26:23.620Z,84.09
2022-09-23T00:28:54.084Z,84.40
2022-09-23T00:31:27.557Z,84.49
2022-09-23T00:33:59.778Z,84.58
2022-09-23T00:36:31.219Z,84.64
2022-09-23T00:39:04.625Z,84.82
2022-09-23T00:41:36.729Z,84.90
2022-09-23T00:44:47.536Z,85.08
2022-09-23T00:47:45.730Z,85.20
2022-09-23T00:50:30.355Z,85.51
2022-09-23T00:53:08.270Z,85.73
2022-09-23T00:56:07.688Z,85.74
2022-09-23T00:58:41.931Z,85.92
2022-09-23T01:01:16.001Z,85.82
2022-09-23T01:03:49.043Z,86.01
2022-09-23T01:06:17.484Z,86.01
2022-09-23T01:08:50.524Z,86.02
2022-09-23T01:11:34.066Z,86.02
2022-09-23T01:14:12.501Z,86.09
2022-09-23T01:16:53.164Z,86.22
2022-09-23T01:19:37.051Z,86.36
2022-09-23T01:22:34.435Z,86.43
2022-09-23T01:25:43.526Z,86.66
2022-09-23T01:28:46.470Z,86.72
2022-09-23T01:31:24.636Z,86.68
2022-09-23T01:34:20.488Z,86.66
2022-09-23T01:37:24.269Z,86.60
2022-09-23T01:40:07.023Z,86.58
2022-09-23T01:42:53.382Z,86.67
2022-09-23T01:45:54.605Z,86.60
2022-09-23T01:48:32.831Z,86.69
2022-09-23T01:51:19.457Z,86.78
2022-09-23T01:53:59.832Z,86.76
2022-09-23T01:56:44.794Z,86.78
2022-09-23T01:59:38.919Z,86.78
2022-09-23T02:02:14.364Z,86.74
2022-09-23T02:04:57.001Z,86.91
2022-09-23T02:07:53.364Z,86.63
2022-09-23T02:10:45.035Z,86.33
2022-09-23T02:13:31.272Z,86.26
2022-09-23T02:16:05.033Z,86.15
2022-09-23T02:18:46.426Z,85.96
2022-09-23T02:21:16.760Z,85.52
2022-09-23T02:23:59.511Z,84.76
2022-09-23T02:26:47.141Z,84.15
2022-09-23T02:29:28.207Z,83.79
2022-09-23T02:32:24.897Z,83.42
2022-09-23T02:35:20.273Z,83.31
2022-09-23T02:38:18.065Z,83.26
2022-09-23T02:41:02.793Z,83.01
2022-09-23T02:43:40.207Z,82.80
2022-09-23T02:46:10.691Z,82.90
2022-09-23T02:48:46.876Z,83.00
2022-09-23T02:51:15.308Z,83.15
2022-09-23T02:53:57.736Z,83.26
2022-09-23T02:56:29.068Z,83.45
2022-09-23T02:58:58.631Z,83.67
2022-09-23T03:01:39.481Z,83.76
2022-09-23T03:04:53.731Z,83.70
2022-09-23T03:07:43.163Z,83.88
2022-09-23T03:10:23.108Z,84.22
2022-09-23T03:13:33.175Z,83.97
2022-09-23T03:16:35.391Z,84.30
2022-09-23T03:19:03.592Z,84.31
2022-09-23T03:21:38.668Z,84.39
2022-09-23T03:24:10.545Z,84.60
2022-09-23T03:26:41.074Z,84.69
2022-09-23T03:29:12.073Z,84.76
2022-09-23T03:31:42.625Z,85.05
2022-09-23T03:34:28.408Z,84.99
2022-09-23T03:37:01.579Z,85.15
2022-09-23T03:39:41.203Z,85.25
2022-09-23T03:42:22.681Z,85.33
2022-09-23T03:44:59.776Z,85.41
2022-09-23T03:47:28.929Z,85.73
2022-09-23T03:49:57.635Z,85.76
2022-09-23T03:52:29.938Z,85.92
2022-09-23T03:55:02.255Z,85.88
2022-09-23T03:57:32.166Z,85.91
2022-09-23T04:00:15.160Z,86.09
2022-09-23T04:02:55.429Z,86.05
2022-09-23T04:05:23.729Z,86.22
2022-09-23T04:07:53.437Z,86.24
2022-09-23T04:10:31.747Z,86.33
2022-09-23T04:13:05.049Z,86.41
2022-09-23T04:15:39.510Z,86.68
2022-09-23T04:18:08.167Z,86.31
2022-09-23T04:20:47.610Z,86.44
2022-09-23T04:23:20.417Z,86.26
2022-09-23T04:25:52.378Z,86.53
2022-09-23T04:28:22.276Z,86.46
2022-09-23T04:30:51.536Z,86.58
2022-09-23T04:33:24.801Z,86.49
2022-09-23T04:35:58.639Z,86.39
2022-09-23T04:38:27.824Z,86.45
2022-09-23T04:41:07.048Z,86.36
2022-09-23T04:43:37.565Z,86.41
2022-09-23T04:46:15.682Z,86.24
2022-09-23T04:49:00.459Z,86.29
2022-09-23T04:51:34.906Z,86.04
2022-09-23T04:54:03.349Z,86.32
2022-09-23T04:56:34.553Z,86.18
2022-09-23T04:59:02.973Z,85.98
2022-09-23T05:01:35.298Z,85.97
2022-09-23T05:04:06.313Z,85.92
2022-09-23T05:06:36.207Z,85.75
2022-09-23T05:09:07.676Z,85.52
2022-09-23T05:11:43.002Z,85.65
2022-09-23T05:14:26.507Z,85.29
2022-09-23T05:16:57.907Z,84.96
2022-09-23T05:19:28.053Z,84.79
2022-09-23T05:21:59.523Z,84.63
2022-09-23T05:24:30.615Z,84.39
2022-09-23T05:26:58.709Z,84.01
2022-09-23T05:29:29.456Z,83.87
2022-09-23T05:31:58.260Z,83.70
2022-09-23T05:34:30.069Z,83.68
2022-09-23T05:37:06.678Z,83.35
2022-09-23T05:39:48.389Z,83.54
2022-09-23T05:42:23.018Z,83.34
2022-09-23T05:44:59.449Z,82.70
2022-09-23T05:47:32.126Z,81.80
2022-09-23T05:50:03.430Z,81.04
2022-09-23T05:52:31.725Z,79.87
2022-09-23T05:54:59.944Z,79.31
2022-09-23T05:57:30.739Z,78.41
2022-09-23T05:59:58.837Z,77.66
2022-09-23T06:02:30.439Z,77.06
2022-09-23T06:04:59.165Z,76.54
2022-09-23T06:07:28.358Z,76.03
2022-09-23T06:09:56.512Z,75.19
2022-09-23T06:12:25.478Z,75.26
2022-09-23T06:14:54.259Z,74.78
2022-09-23T06:17:33.550Z,74.71
2022-09-23T06:20:02.184Z,74.91
2022-09-23T06:22:30.621Z,74.44
2022-09-23T06:24:58.707Z,74.75
2022-09-23T06:27:30.143Z,74.21
2022-09-23T06:30:18.072Z,74.48
2022-09-23T06:32:57.643Z,74.00
2022-09-23T06:35:27.867Z,74.63
2022-09-23T06:38:01.015Z,74.33
2022-09-23T06:40:31.413Z,74.19
2022-09-23T06:43:01.888Z,74.05
2022-09-23T06:45:30.858Z,73.87
2022-09-23T06:47:59.041Z,72.67
2022-09-23T06:50:28.377Z,72.56
2022-09-23T06:53:01.924Z,72.15
2022-09-23T06:55:31.056Z,72.32
2022-09-23T06:58:07.970Z,71.14
2022-09-23T07:00:38.029Z,70.62
2022-09-23T07:03:12.180Z,69.91
2022-09-23T07:05:42.890Z,69.94
2022-09-23T07:08:11.679Z,69.61
2022-09-23T07:10:41.395Z,69.28
2022-09-23T07:13:16.034Z,68.92
2022-09-23T07:15:56.338Z,67.35
2022-09-23T07:18:26.370Z,67.83
2022-09-23T07:20:58.345Z,66.78
2022-09-23T07:23:33.751Z,66.22
2022-09-23T07:26:13.948Z,66.60
2022-09-23T07:28:42.365Z,66.70
2022-09-23T07:31:38.610Z,66.27
2022-09-23T07:34:11.826Z,66.02
2022-09-23T07:36:50.584Z,64.97
2022-09-23T07:39:22.771Z,65.65
2022-09-23T07:41:57.093Z,65.43
2022-09-23T07:44:26.012Z,64.98
2022-09-23T07:47:03.696Z,64.67
2022-09-23T07:49:52.247Z,64.63
2022-09-23T07:52:38.842Z,63.43
2022-09-23T07:55:18.858Z,62.56
2022-09-23T07:57:50.544Z,63.32
2022-09-23T08:00:52.859Z,63.16
2022-09-23T08:03:22.099Z,62.75
2022-09-23T08:05:54.037Z,62.19
2022-09-23T08:08:38.772Z,61.82
2022-09-23T08:11:19.204Z,62.73
2022-09-23T08:13:51.779Z,61.81
2022-09-23T08:16:23.403Z,61.51
2022-09-23T08:18:52.877Z,60.88
2022-09-23T08:21:22.955Z,58.75
2022-09-23T08:23:55.009Z,57.52
2022-09-23T08:26:23.600Z,57.85
2022-09-23T08:28:55.447Z,59.40
2022-09-23T08:31:25.506Z,60.12
2022-09-23T08:33:56.485Z,58.70
2022-09-23T08:36:30.997Z,58.38
2022-09-23T08:39:02.333Z,59.06
2022-09-23T08:41:58.447Z,59.10
2022-09-23T08:44:35.924Z,58.89
2022-09-23T08:47:41.383Z,58.31
2022-09-23T08:50:20.548Z,58.19
2022-09-23T08:52:53.364Z,57.46
2022-09-23T08:55:54.617Z,56.82
2022-09-23T08:58:53.981Z,57.22
2022-09-23T09:01:47.234Z,57.04
2022-09-23T09:04:40.870Z,57.59
2022-09-23T09:07:35.739Z,57.15
2022-09-23T09:10:35.451Z,56.59
2022-09-23T09:13:15.492Z,56.62
2022-09-23T09:15:57.938Z,55.31
2022-09-23T09:18:51.232Z,55.00
2022-09-23T09:21:42.685Z,55.88
2022-09-23T09:24:22.328Z,55.89
2022-09-23T09:27:19.256Z,56.07
2022-09-23T09:29:59.020Z,55.72
2022-09-23T09:32:48.755Z,54.77
2022-09-23T09:35:57.953Z,55.06
2022-09-23T09:38:36.488Z,55.44
2022-09-23T09:41:40.335Z,54.68
2022-09-23T09:44:31.844Z,54.33
2022-09-23T09:47:03.467Z,53.60
2022-09-23T09:49:46.326Z,54.87
2022-09-23T09:52:33.458Z,55.44
2022-09-23T09:55:40.113Z,55.44
2022-09-23T09:58:17.922Z,55.13
2022-09-23T10:00:52.600Z,55.11
2022-09-23T10:03:37.806Z,56.25
2022-09-23T10:06:27.983Z,55.37
2022-09-23T10:09:02.089Z,53.32
2022-09-23T10:11:34.465Z,52.70
2022-09-23T10:14:13.358Z,51.20
2022-09-23T10:16:44.814Z,50.62
2022-09-23T10:19:23.519Z,51.68
2022-09-23T10:21:57.524Z,51.42
2022-09-23T10:24:30.709Z,51.07
2022-09-23T10:27:17.265Z,51.28
2022-09-23T10:30:15.501Z,51.65
2022-09-23T10:32:45.353Z,51.78
2022-09-23T10:35:22.384Z,51.74
2022-09-23T10:38:00.964Z,52.11
2022-09-23T10:40:58.279Z,52.25
2022-09-23T10:44:12.614Z,51.28
2022-09-23T10:47:28.510Z,51.98
2022-09-23T10:50:29.101Z,50.62
2022-09-23T10:53:44.291Z,51.79
2022-09-23T10:56:39.914Z,51.85
2022-09-23T10:59:22.698Z,51.90
2022-09-23T11:02:17.869Z,52.18
2022-09-23T11:05:29.485Z,49.62
2022-09-23T11:08:46.119Z,49.29
2022-09-23T11:11:47.603Z,47.87
2022-09-23T11:15:04.090Z,48.32
2022-09-23T11:18:31.890Z,49.40
2022-09-23T11:22:08.705Z,49.67
2022-09-23T11:25:00.376Z,48.39
2022-09-23T11:28:00.721Z,48.51
2022-09-23T11:31:15.676Z,48.92
2022-09-23T11:34:02.412Z,47.54
2022-09-23T11:36:54.841Z,46.48
2022-09-23T11:39:42.318Z,46.97
2022-09-23T11:42:28.072Z,44.87
2022-09-23T11:45:06.931Z,45.46
2022-09-23T11:47:57.278Z,44.92
2022-09-23T11:51:10.620Z,44.48
2022-09-23T11:53:50.333Z,45.32
2022-09-23T11:56:49.249Z,46.82
2022-09-23T11:59:40.062Z,47.05
2022-09-23T12:02:28.248Z,47.79
2022-09-23T12:05:20.591Z,48.27
2022-09-23T12:08:01.628Z,48.51
2022-09-23T12:10:49.166Z,48.80
2022-09-23T12:14:01.578Z,49.06
2022-09-23T12:16:43.323Z,48.97
2022-09-23T12:19:33.736Z,48.36
2022-09-23T12:22:05.025Z,47.65
2022-09-23T12:24:45.176Z,46.37
2022-09-23T12:27:34.075Z,45.68
2022-09-23T12:30:11.526Z,46.21
2022-09-23T12:32:46.718Z,46.80
2022-09-23T12:35:40.447Z,46.51
2022-09-23T12:38:25.302Z,45.86
2022-09-23T12:40:56.340Z,45.08
2022-09-23T12:43:35.061Z,45.73
2022-09-23T12:46:25.823Z,46.36
2022-09-23T12:49:06.587Z,46.70
2022-09-23T12:51:39.276Z,46.53
2022-09-23T12:54:47.108Z,47.05
2022-09-23T12:57:34.693Z,47.66
2022-09-23T13:00:23.040Z,47.83
2022-09-23T13:03:20.291Z,48.09
2022-09-23T13:06:35.659Z,48.18
2022-09-23T13:09:25.796Z,48.66
2022-09-23T13:12:00.420Z,49.32
2022-09-23T13:14:39.361Z,49.32
2022-09-23T13:17:24.797Z,49.48
2022-09-23T13:20:41.221Z,49.50
2022-09-23T13:23:35.007Z,49.92
2022-09-23T13:26:14.022Z,50.33
2022-09-23T13:29:10.353Z,50.44
2022-09-23T13:32:12.144Z,50.68
2022-09-23T13:35:27.049Z,50.45
2022-09-23T13:38:30.056Z,50.81
2022-09-23T13:41:16.406Z,50.82
2022-09-23T13:43:55.837Z,50.55
2022-09-23T13:46:43.788Z,50.24
2022-09-23T13:49:30.070Z,51.04
2022-09-23T13:52:33.381Z,51.18
2022-09-23T13:55:07.097Z,50.58
2022-09-23T13:57:36.633Z,50.71
2022-09-23T14:00:26.474Z,50.52
2022-09-23T14:03:06.590Z,50.46
2022-09-23T14:05:54.752Z,50.57
2022-09-23T14:08:24.742Z,50.46
2022-09-23T14:10:58.389Z,50.51
2022-09-23T14:13:41.826Z,50.26
2022-09-23T14:16:15.186Z,50.88
2022-09-23T14:18:52.122Z,50.72
2022-09-23T14:21:35.404Z,50.46
2022-09-23T14:24:25.492Z,50.51
2022-09-23T14:27:09.724Z,50.53
2022-09-23T14:30:24.387Z,50.77
2022-09-23T14:33:00.309Z,51.13
2022-09-23T14:35:44.799Z,50.63
2022-09-23T14:38:39.743Z,51.12
2022-09-23T14:41:38.926Z,50.95
2022-09-23T14:44:08.486Z,51.17
2022-09-23T14:46:51.117Z,50.89
2022-09-23T14:49:19.317Z,50.52
2022-09-23T14:51:47.551Z,49.78
2022-09-23T14:54:40.161Z,49.46
2022-09-23T14:57:26.629Z,49.36
2022-09-23T15:00:01.120Z,49.60
2022-09-23T15:02:36.855Z,49.35
2022-09-23T15:05:24.365Z,49.30
2022-09-23T15:07:58.188Z,49.53
2022-09-23T15:10:32.010Z,49.73
2022-09-23T15:13:19.908Z,50.03
2022-09-23T15:15:48.823Z,50.19
2022-09-23T15:18:33.136Z,50.22
2022-09-23T15:21:15.011Z,50.21
2022-09-23T15:23:52.352Z,51.10
2022-09-23T15:26:20.815Z,50.90
2022-09-23T15:28:50.454Z,51.09
2022-09-23T15:31:21.218Z,51.41
2022-09-23T15:33:51.469Z,51.09
2022-09-23T15:36:29.730Z,51.36
2022-09-23T15:39:06.244Z,51.42
2022-09-23T15:41:34.994Z,51.73
2022-09-23T15:44:28.811Z,51.70
2022-09-23T15:47:01.282Z,51.64
2022-09-23T15:49:34.387Z,51.08
2022-09-23T15:52:04.825Z,51.40
2022-09-23T15:54:34.084Z,51.31
2022-09-23T15:57:02.400Z,51.27
2022-09-23T15:59:33.776Z,51.46
2022-09-23T16:02:09.880Z,51.83
2022-09-23T16:04:40.765Z,52.37
2022-09-23T16:07:28.712Z,52.49
2022-09-23T16:09:59.699Z,53.17
2022-09-23T16:12:28.039Z,53.54
2022-09-23T16:14:56.679Z,54.47
2022-09-23T16:17:25.468Z,55.03
2022-09-23T16:19:53.703Z,55.91
2022-09-23T16:22:21.879Z,56.65
2022-09-23T16:25:42.509Z,57.51
2022-09-23T16:28:11.302Z,58.95
2022-09-23T16:30:39.832Z,59.65
2022-09-23T16:33:08.102Z,60.57
2022-09-23T16:35:37.674Z,61.35
2022-09-23T16:38:07.029Z,62.18
2022-09-23T16:40:35.372Z,62.47
2022-09-23T16:43:07.852Z,62.66
2022-09-23T16:45:36.657Z,63.82
2022-09-23T16:48:05.891Z,64.34
2022-09-23T16:50:34.864Z,64.91
2022-09-23T16:53:03.900Z,65.09
2022-09-23T16:55:32.450Z,65.92
2022-09-23T16:58:00.671Z,66.27
2022-09-23T17:00:47.501Z,66.93
2022-09-23T17:03:34.385Z,67.36
2022-09-23T17:06:07.895Z,67.81
2022-09-23T17:08:36.760Z,68.06
2022-09-23T17:11:05.556Z,67.86
2022-09-23T17:13:37.772Z,68.51
2022-09-23T17:16:09.176Z,68.58
2022-09-23T17:18:43.250Z,69.17
2022-09-23T17:21:11.822Z,69.40
2022-09-23T17:23:40.637Z,69.36
2022-09-23T17:26:12.781Z,70.32
2022-09-23T17:28:40.904Z,70.32
2022-09-23T17:31:09.254Z,70.36
2022-09-23T17:33:37.859Z,70.73
2022-09-23T17:36:12.107Z,70.34
2022-09-23T17:38:46.084Z,70.96
2022-09-23T17:41:16.294Z,70.97
2022-09-23T17:43:46.954Z,71.46
2022-09-23T17:46:18.839Z,71.75
2022-09-23T17:48:47.514Z,72.02
2022-09-23T17:51:21.511Z,72.13
2022-09-23T17:53:50.990Z,72.38
2022-09-23T17:56:26.287Z,72.44
2022-09-23T17:58:54.747Z,72.58
2022-09-23T18:01:26.669Z,72.33
2022-09-23T18:03:56.783Z,72.70
2022-09-23T18:06:27.673Z,73.01
2022-09-23T18:09:01.042Z,73.08
2022-09-23T18:11:31.686Z,73.19
2022-09-23T18:14:12.002Z,73.27
2022-09-23T18:16:48.086Z,73.24
2022-09-23T18:19:19.838Z,73.44
2022-09-23T18:21:54.655Z,74.18
2022-09-23T18:24:32.738Z,74.23
2022-09-23T18:27:23.200Z,74.34
2022-09-23T18:29:52.052Z,74.43
2022-09-23T18:32:20.489Z,74.48
2022-09-23T18:34:48.799Z,74.75
2022-09-23T18:37:17.229Z,74.94
2022-09-23T18:39:45.811Z,75.21
2022-09-23T18:42:14.607Z,74.95
2022-09-23T18:44:56.561Z,75.25
2022-09-23T18:47:51.405Z,75.17
2022-09-23T18:50:43.980Z,74.93
2022-09-23T18:53:15.669Z,75.10
2022-09-23T18:55:44.203Z,75.46
2022-09-23T18:58:16.278Z,75.43
2022-09-23T19:00:50.585Z,75.23
2022-09-23T19:03:23.869Z,75.30
2022-09-23T19:05:52.522Z,75.65
2022-09-23T19:08:21.221Z,75.39
2022-09-23T19:10:56.267Z,75.75
2022-09-23T19:13:24.693Z,75.66
2022-09-23T19:16:19.368Z,74.82
2022-09-23T19:18:48.080Z,73.74
2022-09-23T19:21:21.172Z,73.41
2022-09-23T19:23:53.690Z,73.33
2022-09-23T19:26:28.742Z,73.07
2022-09-23T19:28:58.830Z,73.19
2022-09-23T19:31:30.245Z,73.17
2022-09-23T19:34:17.012Z,73.40
2022-09-23T19:36:48.467Z,73.87
2022-09-23T19:39:22.572Z,74.54
2022-09-23T19:41:56.283Z,74.59
2022-09-23T19:44:27.278Z,74.83
2022-09-23T19:46:58.960Z,74.97
2022-09-23T19:49:28.252Z,74.95
2022-09-23T19:51:57.303Z,75.32
2022-09-23T19:54:27.759Z,75.64
2022-09-23T19:56:56.819Z,75.74
2022-09-23T19:59:34.782Z,75.39
2022-09-23T20:02:04.412Z,75.58
2022-09-23T20:04:35.763Z,75.72
2022-09-23T20:07:09.126Z,76.00
2022-09-23T20:09:40.232Z,75.81
2022-09-23T20:12:16.117Z,75.62
2022-09-23T20:14:48.012Z,76.06
2022-09-23T20:17:17.661Z,75.99
2022-09-23T20:19:47.820Z,76.14
2022-09-23T20:22:33.078Z,75.58
2022-09-23T20:25:13.269Z,75.27
2022-09-23T20:27:49.682Z,75.28
2022-09-23T20:30:20.772Z,74.99
2022-09-23T20:32:51.872Z,74.87
2022-09-23T20:35:20.578Z,74.62
2022-09-23T20:37:49.815Z,74.50
2022-09-23T20:40:27.352Z,74.38
2022-09-23T20:42:56.194Z,74.00
2022-09-23T20:45:50.345Z,74.13
2022-09-23T20:48:22.524Z,73.70
2022-09-23T20:51:02.532Z,73.91
2022-09-23T20:53:35.315Z,73.57
2022-09-23T20:56:07.134Z,73.70
2022-09-23T20:58:36.907Z,73.59
2022-09-23T21:01:10.806Z,73.36
2022-09-23T21:03:42.206Z,73.18
2022-09-23T21:06:19.150Z,73.21
2022-09-23T21:08:53.548Z,72.92
2022-09-23T21:11:25.830Z,72.57
2022-09-23T21:13:55.196Z,72.66
2022-09-23T21:16:24.755Z,72.57
2022-09-23T21:18:53.318Z,72.11
2022-09-23T21:21:22.605Z,71.94
2022-09-23T21:23:56.489Z,71.80
2022-09-23T21:26:32.367Z,71.87
2022-09-23T21:29:01.567Z,71.69
2022-09-23T21:31:36.029Z,71.64
2022-09-23T21:34:08.033Z,71.42
2022-09-23T21:36:42.962Z,71.78
2022-09-23T21:39:12.171Z,71.87
2022-09-23T21:41:41.531Z,71.89
2022-09-23T21:44:10.019Z,71.84
2022-09-23T21:46:39.116Z,71.55
2022-09-23T21:49:17.847Z,71.76
2022-09-23T21:51:46.253Z,71.60
2022-09-23T21:54:16.197Z,71.56
2022-09-23T21:56:44.992Z,71.50
2022-09-23T21:59:13.151Z,71.67
2022-09-23T22:01:45.219Z,71.49
2022-09-23T22:04:18.644Z,71.38
2022-09-23T22:06:49.071Z,71.50
2022-09-23T22:09:19.900Z,71.37
2022-09-23T22:12:09.933Z,71.41
2022-09-23T22:14:39.226Z,70.94
2022-09-23T22:17:10.985Z,70.87
2022-09-23T22:19:45.842Z,70.82
2022-09-23T22:22:17.946Z,70.96
2022-09-23T22:24:48.843Z,70.51
2022-09-23T22:27:21.143Z,70.07
2022-09-23T22:30:07.842Z,70.23
2022-09-23T22:32:42.085Z,70.45
2022-09-23T22:35:19.385Z,70.62
2022-09-23T22:37:49.127Z,70.13
2022-09-23T22:40:17.465Z,69.84
2022-09-23T22:42:46.370Z,69.80
2022-09-23T22:45:15.059Z,70.03
2022-09-23T22:47:45.753Z,70.20
2022-09-23T22:50:14.927Z,70.24
2022-09-23T22:52:43.954Z,69.96
2022-09-23T22:55:12.442Z,69.79
2022-09-23T22:57:41.059Z,70.01
2022-09-23T23:00:22.174Z,69.92
2022-09-23T23:02:50.470Z,69.53
2022-09-23T23:05:18.974Z,69.77
2022-09-23T23:07:47.390Z,69.61
2022-09-23T23:10:17.387Z,69.67
2022-09-23T23:12:47.073Z,69.91
2022-09-23T23:15:16.725Z,69.59
2022-09-23T23:17:44.920Z,69.92
2022-09-23T23:20:13.051Z,69.92
2022-09-23T23:22:43.209Z,69.98
2022-09-23T23:25:11.897Z,69.90
2022-09-23T23:27:40.196Z,70.23
2022-09-23T23:30:09.204Z,70.30
2022-09-23T23:32:37.899Z,70.35
2022-09-23T23:35:09.619Z,70.51
2022-09-23T23:37:39.443Z,70.75
2022-09-23T23:40:09.861Z,70.18
2022-09-23T23:42:42.287Z,70.29
2022-09-23T23:45:10.627Z,70.23
2022-09-23T23:47:41.287Z,69.90
2022-09-23T23:50:19.027Z,69.71
2022-09-23T23:52:47.867Z,69.49
2022-09-23T23:55:17.286Z,69.08
2022-09-23T23:57:48.026Z,69.23
